sensor_id;sensor_type;location;lat;lon;timestamp;P1;durP1;ratioP1;P2;durP2;ratioP2
73474;SDS011;61711;52.266;10.542;2023-06-10T00:00:49;6.70;;;4.25;;
73474;SDS011;61711;52.266;10.542;2023-06-10T00:03:16;6.82;;;4.45;;
73474;SDS011;61711;52.266;10.542;2023-06-10T00:05:42;7.32;;;4.65;;
73474;SDS011;61711;52.266;10.542;2023-06-10T00:08:08;7.45;;;4.30;;
73474;SDS011;61711;52.266;10.542;2023-06-10T00:10:36;8.85;;;3.60;;
73474;SDS011;61711;52.266;10.542;2023-06-10T00:13:05;8.82;;;4.38;;
73474;SDS011;61711;52.266;10.542;2023-06-10T00:15:36;6.60;;;4.05;;
73474;SDS011;61711;52.266;10.542;2023-06-10T00:18:02;7.63;;;4.30;;
73474;SDS011;61711;52.266;10.542;2023-06-10T00:20:28;6.35;;;4.28;;
73474;SDS011;61711;52.266;10.542;2023-06-10T00:22:55;7.50;;;4.30;;
73474;SDS011;61711;52.266;10.542;2023-06-10T00:25:22;7.57;;;4.32;;
73474;SDS011;61711;52.266;10.542;2023-06-10T00:27:48;7.97;;;4.20;;
73474;SDS011;61711;52.266;10.542;2023-06-10T00:30:14;8.38;;;4.50;;
73474;SDS011;61711;52.266;10.542;2023-06-10T00:32:40;11.20;;;4.57;;
73474;SDS011;61711;52.266;10.542;2023-06-10T00:35:06;7.28;;;4.70;;
73474;SDS011;61711;52.266;10.542;2023-06-10T00:37:33;9.10;;;4.60;;
73474;SDS011;61711;52.266;10.542;2023-06-10T00:40:02;6.72;;;4.57;;
73474;SDS011;61711;52.266;10.542;2023-06-10T00:42:28;7.40;;;4.45;;
73474;SDS011;61711;52.266;10.542;2023-06-10T00:44:54;7.90;;;4.50;;
73474;SDS011;61711;52.266;10.542;2023-06-10T00:47:21;9.93;;;4.90;;
73474;SDS011;61711;52.266;10.542;2023-06-10T00:49:47;9.40;;;4.90;;
73474;SDS011;61711;52.266;10.542;2023-06-10T00:52:13;8.30;;;4.70;;
73474;SDS011;61711;52.266;10.542;2023-06-10T00:54:40;8.07;;;4.82;;
73474;SDS011;61711;52.266;10.542;2023-06-10T00:57:07;8.55;;;5.15;;
73474;SDS011;61711;52.266;10.542;2023-06-10T00:59:33;8.30;;;4.75;;
73474;SDS011;61711;52.266;10.542;2023-06-10T01:01:59;10.07;;;4.88;;
73474;SDS011;61711;52.266;10.542;2023-06-10T01:04:27;7.97;;;4.78;;
73474;SDS011;61711;52.266;10.542;2023-06-10T01:11:52;8.95;;;5.60;;
73474;SDS011;61711;52.266;10.542;2023-06-10T01:14:22;9.23;;;4.90;;
73474;SDS011;61711;52.266;10.542;2023-06-10T01:16:49;9.13;;;5.50;;
73474;SDS011;61711;52.266;10.542;2023-06-10T01:19:17;7.93;;;4.93;;
73474;SDS011;61711;52.266;10.542;2023-06-10T01:21:43;10.38;;;5.55;;
73474;SDS011;61711;52.266;10.542;2023-06-10T01:24:14;9.73;;;5.47;;
73474;SDS011;61711;52.266;10.542;2023-06-10T01:26:43;9.27;;;5.13;;
73474;SDS011;61711;52.266;10.542;2023-06-10T01:29:11;8.10;;;5.22;;
73474;SDS011;61711;52.266;10.542;2023-06-10T01:34:14;10.45;;;5.82;;
73474;SDS011;61711;52.266;10.542;2023-06-10T01:36:43;8.35;;;5.53;;
73474;SDS011;61711;52.266;10.542;2023-06-10T01:39:10;8.25;;;5.72;;
73474;SDS011;61711;52.266;10.542;2023-06-10T01:41:36;6.78;;;5.65;;
73474;SDS011;61711;52.266;10.542;2023-06-10T01:44:03;10.18;;;5.63;;
73474;SDS011;61711;52.266;10.542;2023-06-10T01:46:29;10.02;;;5.63;;
73474;SDS011;61711;52.266;10.542;2023-06-10T01:48:55;8.48;;;5.43;;
73474;SDS011;61711;52.266;10.542;2023-06-10T01:51:21;8.65;;;5.55;;
73474;SDS011;61711;52.266;10.542;2023-06-10T01:53:47;11.18;;;6.00;;
73474;SDS011;61711;52.266;10.542;2023-06-10T01:56:13;11.30;;;5.72;;
73474;SDS011;61711;52.266;10.542;2023-06-10T01:58:42;9.68;;;5.68;;
73474;SDS011;61711;52.266;10.542;2023-06-10T02:01:09;12.02;;;6.00;;
73474;SDS011;61711;52.266;10.542;2023-06-10T02:03:35;8.27;;;5.60;;
73474;SDS011;61711;52.266;10.542;2023-06-10T02:06:01;9.85;;;5.45;;
73474;SDS011;61711;52.266;10.542;2023-06-10T02:08:27;8.85;;;5.90;;
73474;SDS011;61711;52.266;10.542;2023-06-10T02:10:53;9.25;;;5.85;;
73474;SDS011;61711;52.266;10.542;2023-06-10T02:13:19;11.80;;;6.10;;
73474;SDS011;61711;52.266;10.542;2023-06-10T02:15:45;10.02;;;6.07;;
73474;SDS011;61711;52.266;10.542;2023-06-10T02:18:11;9.35;;;6.10;;
73474;SDS011;61711;52.266;10.542;2023-06-10T02:20:38;13.88;;;6.65;;
73474;SDS011;61711;52.266;10.542;2023-06-10T02:23:04;10.70;;;5.68;;
73474;SDS011;61711;52.266;10.542;2023-06-10T02:25:30;10.07;;;5.68;;
73474;SDS011;61711;52.266;10.542;2023-06-10T02:27:56;11.80;;;6.00;;
73474;SDS011;61711;52.266;10.542;2023-06-10T02:30:22;10.45;;;5.90;;
73474;SDS011;61711;52.266;10.542;2023-06-10T02:32:48;8.75;;;5.72;;
73474;SDS011;61711;52.266;10.542;2023-06-10T02:35:15;11.52;;;6.47;;
73474;SDS011;61711;52.266;10.542;2023-06-10T02:37:42;9.82;;;6.20;;
73474;SDS011;61711;52.266;10.542;2023-06-10T02:40:08;11.02;;;5.93;;
73474;SDS011;61711;52.266;10.542;2023-06-10T02:42:35;9.85;;;6.38;;
73474;SDS011;61711;52.266;10.542;2023-06-10T02:45:01;12.20;;;6.45;;
73474;SDS011;61711;52.266;10.542;2023-06-10T02:47:27;9.13;;;5.90;;
73474;SDS011;61711;52.266;10.542;2023-06-10T02:49:53;9.23;;;5.80;;
73474;SDS011;61711;52.266;10.542;2023-06-10T02:52:19;9.27;;;6.13;;
73474;SDS011;61711;52.266;10.542;2023-06-10T02:54:45;9.43;;;5.55;;
73474;SDS011;61711;52.266;10.542;2023-06-10T02:57:11;8.60;;;6.07;;
73474;SDS011;61711;52.266;10.542;2023-06-10T02:59:39;10.63;;;6.53;;
73474;SDS011;61711;52.266;10.542;2023-06-10T03:02:05;13.15;;;6.40;;
73474;SDS011;61711;52.266;10.542;2023-06-10T03:04:31;11.13;;;6.70;;
73474;SDS011;61711;52.266;10.542;2023-06-10T03:06:57;12.90;;;7.00;;
73474;SDS011;61711;52.266;10.542;2023-06-10T03:09:25;8.95;;;6.28;;
73474;SDS011;61711;52.266;10.542;2023-06-10T03:11:51;13.48;;;6.80;;
73474;SDS011;61711;52.266;10.542;2023-06-10T03:14:17;11.25;;;6.25;;
73474;SDS011;61711;52.266;10.542;2023-06-10T03:16:43;12.57;;;6.57;;
73474;SDS011;61711;52.266;10.542;2023-06-10T03:19:10;13.10;;;6.20;;
73474;SDS011;61711;52.266;10.542;2023-06-10T03:21:36;11.00;;;6.45;;
73474;SDS011;61711;52.266;10.542;2023-06-10T03:24:03;9.73;;;7.10;;
73474;SDS011;61711;52.266;10.542;2023-06-10T03:26:30;10.20;;;6.43;;
73474;SDS011;61711;52.266;10.542;2023-06-10T03:28:56;11.57;;;6.80;;
73474;SDS011;61711;52.266;10.542;2023-06-10T03:31:22;10.40;;;6.75;;
73474;SDS011;61711;52.266;10.542;2023-06-10T03:33:49;11.13;;;6.80;;
73474;SDS011;61711;52.266;10.542;2023-06-10T03:36:16;9.88;;;6.55;;
73474;SDS011;61711;52.266;10.542;2023-06-10T03:38:42;10.50;;;6.82;;
73474;SDS011;61711;52.266;10.542;2023-06-10T03:41:08;11.43;;;6.45;;
73474;SDS011;61711;52.266;10.542;2023-06-10T03:43:34;11.55;;;6.40;;
73474;SDS011;61711;52.266;10.542;2023-06-10T03:46:00;10.82;;;6.40;;
73474;SDS011;61711;52.266;10.542;2023-06-10T03:48:26;9.68;;;6.53;;
73474;SDS011;61711;52.266;10.542;2023-06-10T03:50:52;13.73;;;7.22;;
73474;SDS011;61711;52.266;10.542;2023-06-10T03:53:18;10.15;;;6.07;;
73474;SDS011;61711;52.266;10.542;2023-06-10T03:55:44;12.35;;;6.70;;
73474;SDS011;61711;52.266;10.542;2023-06-10T03:58:10;11.13;;;6.43;;
73474;SDS011;61711;52.266;10.542;2023-06-10T04:00:39;13.50;;;7.68;;
73474;SDS011;61711;52.266;10.542;2023-06-10T04:03:10;12.77;;;6.35;;
73474;SDS011;61711;52.266;10.542;2023-06-10T04:05:40;12.13;;;6.97;;
73474;SDS011;61711;52.266;10.542;2023-06-10T04:08:07;13.35;;;6.68;;
73474;SDS011;61711;52.266;10.542;2023-06-10T04:10:33;13.50;;;7.05;;
73474;SDS011;61711;52.266;10.542;2023-06-10T04:12:59;11.30;;;6.53;;
73474;SDS011;61711;52.266;10.542;2023-06-10T04:15:25;13.90;;;6.72;;
73474;SDS011;61711;52.266;10.542;2023-06-10T04:17:51;17.45;;;6.80;;
73474;SDS011;61711;52.266;10.542;2023-06-10T04:20:17;12.73;;;7.22;;
73474;SDS011;61711;52.266;10.542;2023-06-10T04:22:43;12.63;;;6.88;;
73474;SDS011;61711;52.266;10.542;2023-06-10T04:25:09;10.20;;;6.32;;
73474;SDS011;61711;52.266;10.542;2023-06-10T04:27:35;13.00;;;6.82;;
73474;SDS011;61711;52.266;10.542;2023-06-10T04:30:02;14.05;;;6.90;;
73474;SDS011;61711;52.266;10.542;2023-06-10T04:32:29;11.70;;;6.65;;
73474;SDS011;61711;52.266;10.542;2023-06-10T04:34:55;13.82;;;6.53;;
73474;SDS011;61711;52.266;10.542;2023-06-10T04:37:21;11.05;;;6.50;;
73474;SDS011;61711;52.266;10.542;2023-06-10T04:39:47;13.75;;;7.18;;
73474;SDS011;61711;52.266;10.542;2023-06-10T04:42:13;14.30;;;6.90;;
73474;SDS011;61711;52.266;10.542;2023-06-10T04:44:39;9.90;;;6.45;;
73474;SDS011;61711;52.266;10.542;2023-06-10T04:47:06;11.98;;;6.88;;
73474;SDS011;61711;52.266;10.542;2023-06-10T04:49:33;10.18;;;6.38;;
73474;SDS011;61711;52.266;10.542;2023-06-10T04:51:59;15.25;;;7.03;;
73474;SDS011;61711;52.266;10.542;2023-06-10T04:54:25;11.20;;;6.82;;
73474;SDS011;61711;52.266;10.542;2023-06-10T04:56:51;10.70;;;6.50;;
73474;SDS011;61711;52.266;10.542;2023-06-10T04:59:17;10.38;;;6.55;;
73474;SDS011;61711;52.266;10.542;2023-06-10T05:01:43;14.20;;;6.88;;
73474;SDS011;61711;52.266;10.542;2023-06-10T05:04:09;14.18;;;6.53;;
73474;SDS011;61711;52.266;10.542;2023-06-10T05:06:35;10.90;;;6.55;;
73474;SDS011;61711;52.266;10.542;2023-06-10T05:09:01;11.77;;;7.07;;
73474;SDS011;61711;52.266;10.542;2023-06-10T05:11:27;11.10;;;6.60;;
73474;SDS011;61711;52.266;10.542;2023-06-10T05:13:53;10.90;;;6.88;;
73474;SDS011;61711;52.266;10.542;2023-06-10T05:16:19;11.07;;;6.63;;
73474;SDS011;61711;52.266;10.542;2023-06-10T05:18:46;11.48;;;7.43;;
73474;SDS011;61711;52.266;10.542;2023-06-10T05:21:12;9.38;;;6.57;;
73474;SDS011;61711;52.266;10.542;2023-06-10T05:23:38;12.77;;;7.03;;
73474;SDS011;61711;52.266;10.542;2023-06-10T05:26:04;14.15;;;7.43;;
73474;SDS011;61711;52.266;10.542;2023-06-10T05:28:30;12.77;;;7.68;;
73474;SDS011;61711;52.266;10.542;2023-06-10T05:30:56;13.07;;;8.02;;
73474;SDS011;61711;52.266;10.542;2023-06-10T05:33:22;16.00;;;7.22;;
73474;SDS011;61711;52.266;10.542;2023-06-10T05:35:48;11.60;;;7.07;;
73474;SDS011;61711;52.266;10.542;2023-06-10T05:38:15;10.27;;;6.90;;
73474;SDS011;61711;52.266;10.542;2023-06-10T05:40:41;13.00;;;7.28;;
73474;SDS011;61711;52.266;10.542;2023-06-10T05:43:07;14.30;;;7.05;;
73474;SDS011;61711;52.266;10.542;2023-06-10T05:45:34;16.08;;;7.22;;
73474;SDS011;61711;52.266;10.542;2023-06-10T05:48:00;13.70;;;7.20;;
73474;SDS011;61711;52.266;10.542;2023-06-10T05:50:26;13.52;;;6.85;;
73474;SDS011;61711;52.266;10.542;2023-06-10T05:52:52;12.18;;;6.82;;
73474;SDS011;61711;52.266;10.542;2023-06-10T05:55:19;15.90;;;6.95;;
73474;SDS011;61711;52.266;10.542;2023-06-10T05:57:45;13.27;;;7.53;;
73474;SDS011;61711;52.266;10.542;2023-06-10T06:00:11;11.27;;;7.00;;
73474;SDS011;61711;52.266;10.542;2023-06-10T06:02:38;14.40;;;7.20;;
73474;SDS011;61711;52.266;10.542;2023-06-10T06:05:04;15.05;;;7.18;;
73474;SDS011;61711;52.266;10.542;2023-06-10T06:07:30;14.77;;;7.18;;
73474;SDS011;61711;52.266;10.542;2023-06-10T06:09:56;12.07;;;7.65;;
73474;SDS011;61711;52.266;10.542;2023-06-10T06:12:22;15.55;;;7.50;;
73474;SDS011;61711;52.266;10.542;2023-06-10T06:14:48;13.15;;;8.35;;
73474;SDS011;61711;52.266;10.542;2023-06-10T06:17:14;14.85;;;7.30;;
73474;SDS011;61711;52.266;10.542;2023-06-10T06:19:40;14.45;;;7.28;;
73474;SDS011;61711;52.266;10.542;2023-06-10T06:22:06;12.73;;;7.10;;
73474;SDS011;61711;52.266;10.542;2023-06-10T06:24:32;14.32;;;7.00;;
73474;SDS011;61711;52.266;10.542;2023-06-10T06:26:58;12.55;;;7.13;;
73474;SDS011;61711;52.266;10.542;2023-06-10T06:29:24;12.98;;;7.00;;
73474;SDS011;61711;52.266;10.542;2023-06-10T06:31:50;13.40;;;7.00;;
73474;SDS011;61711;52.266;10.542;2023-06-10T06:34:16;11.38;;;6.93;;
73474;SDS011;61711;52.266;10.542;2023-06-10T06:36:42;12.40;;;7.32;;
73474;SDS011;61711;52.266;10.542;2023-06-10T06:39:08;11.13;;;6.93;;
73474;SDS011;61711;52.266;10.542;2023-06-10T06:41:34;12.07;;;7.18;;
73474;SDS011;61711;52.266;10.542;2023-06-10T06:44:00;14.70;;;7.07;;
73474;SDS011;61711;52.266;10.542;2023-06-10T06:46:26;12.60;;;7.63;;
73474;SDS011;61711;52.266;10.542;2023-06-10T06:48:53;11.77;;;7.40;;
73474;SDS011;61711;52.266;10.542;2023-06-10T06:51:19;12.13;;;6.85;;
73474;SDS011;61711;52.266;10.542;2023-06-10T06:53:45;12.65;;;6.80;;
73474;SDS011;61711;52.266;10.542;2023-06-10T06:56:11;14.23;;;7.43;;
73474;SDS011;61711;52.266;10.542;2023-06-10T06:58:37;14.45;;;7.28;;
73474;SDS011;61711;52.266;10.542;2023-06-10T07:01:03;12.38;;;6.93;;
73474;SDS011;61711;52.266;10.542;2023-06-10T07:03:29;12.73;;;7.28;;
73474;SDS011;61711;52.266;10.542;2023-06-10T07:05:55;13.75;;;7.00;;
73474;SDS011;61711;52.266;10.542;2023-06-10T07:08:21;11.77;;;7.05;;
73474;SDS011;61711;52.266;10.542;2023-06-10T07:10:47;11.93;;;7.05;;
73474;SDS011;61711;52.266;10.542;2023-06-10T07:13:14;11.35;;;6.40;;
73474;SDS011;61711;52.266;10.542;2023-06-10T07:15:40;11.98;;;6.80;;
73474;SDS011;61711;52.266;10.542;2023-06-10T07:18:06;11.27;;;6.95;;
73474;SDS011;61711;52.266;10.542;2023-06-10T07:20:32;11.55;;;6.80;;
73474;SDS011;61711;52.266;10.542;2023-06-10T07:22:58;13.57;;;6.72;;
73474;SDS011;61711;52.266;10.542;2023-06-10T07:25:24;11.55;;;6.28;;
73474;SDS011;61711;52.266;10.542;2023-06-10T07:27:50;10.88;;;6.32;;
73474;SDS011;61711;52.266;10.542;2023-06-10T07:30:16;10.43;;;7.05;;
73474;SDS011;61711;52.266;10.542;2023-06-10T07:32:42;13.60;;;7.18;;
73474;SDS011;61711;52.266;10.542;2023-06-10T07:35:09;8.80;;;6.47;;
73474;SDS011;61711;52.266;10.542;2023-06-10T07:37:36;11.88;;;6.40;;
73474;SDS011;61711;52.266;10.542;2023-06-10T07:40:02;10.38;;;6.85;;
73474;SDS011;61711;52.266;10.542;2023-06-10T07:42:28;11.48;;;6.68;;
73474;SDS011;61711;52.266;10.542;2023-06-10T07:44:54;14.50;;;7.28;;
73474;SDS011;61711;52.266;10.542;2023-06-10T07:47:20;11.80;;;6.80;;
73474;SDS011;61711;52.266;10.542;2023-06-10T07:49:46;11.98;;;7.50;;
73474;SDS011;61711;52.266;10.542;2023-06-10T07:52:12;12.48;;;7.57;;
73474;SDS011;61711;52.266;10.542;2023-06-10T07:54:38;13.57;;;7.93;;
73474;SDS011;61711;52.266;10.542;2023-06-10T07:57:05;17.02;;;8.00;;
73474;SDS011;61711;52.266;10.542;2023-06-10T07:59:32;14.60;;;7.28;;
73474;SDS011;61711;52.266;10.542;2023-06-10T08:01:58;10.20;;;7.28;;
73474;SDS011;61711;52.266;10.542;2023-06-10T08:04:24;13.52;;;7.40;;
73474;SDS011;61711;52.266;10.542;2023-06-10T08:06:50;12.27;;;7.32;;
73474;SDS011;61711;52.266;10.542;2023-06-10T08:09:16;12.57;;;6.88;;
73474;SDS011;61711;52.266;10.542;2023-06-10T08:11:43;12.32;;;7.35;;
73474;SDS011;61711;52.266;10.542;2023-06-10T08:14:09;12.75;;;7.70;;
73474;SDS011;61711;52.266;10.542;2023-06-10T08:16:35;10.23;;;6.85;;
73474;SDS011;61711;52.266;10.542;2023-06-10T08:19:01;12.35;;;7.53;;
73474;SDS011;61711;52.266;10.542;2023-06-10T08:21:27;10.23;;;7.20;;
73474;SDS011;61711;52.266;10.542;2023-06-10T08:23:53;10.43;;;7.07;;
73474;SDS011;61711;52.266;10.542;2023-06-10T08:26:20;14.43;;;7.43;;
73474;SDS011;61711;52.266;10.542;2023-06-10T08:28:46;12.05;;;7.88;;
73474;SDS011;61711;52.266;10.542;2023-06-10T08:31:11;12.88;;;7.13;;
73474;SDS011;61711;52.266;10.542;2023-06-10T08:33:37;9.57;;;6.88;;
73474;SDS011;61711;52.266;10.542;2023-06-10T08:36:04;11.88;;;7.00;;
73474;SDS011;61711;52.266;10.542;2023-06-10T08:38:30;15.27;;;7.65;;
73474;SDS011;61711;52.266;10.542;2023-06-10T08:40:56;11.07;;;7.32;;
73474;SDS011;61711;52.266;10.542;2023-06-10T08:43:39;14.13;;;6.82;;
73474;SDS011;61711;52.266;10.542;2023-06-10T08:46:08;12.63;;;7.57;;
73474;SDS011;61711;52.266;10.542;2023-06-10T08:48:35;12.60;;;7.55;;
73474;SDS011;61711;52.266;10.542;2023-06-10T08:51:03;11.85;;;7.05;;
73474;SDS011;61711;52.266;10.542;2023-06-10T08:53:30;12.65;;;7.47;;
73474;SDS011;61711;52.266;10.542;2023-06-10T08:55:57;12.18;;;7.75;;
73474;SDS011;61711;52.266;10.542;2023-06-10T08:58:24;13.88;;;8.07;;
73474;SDS011;61711;52.266;10.542;2023-06-10T09:00:51;10.20;;;7.10;;
73474;SDS011;61711;52.266;10.542;2023-06-10T09:03:18;12.93;;;7.60;;
73474;SDS011;61711;52.266;10.542;2023-06-10T09:05:45;10.60;;;7.07;;
73474;SDS011;61711;52.266;10.542;2023-06-10T09:08:11;11.00;;;7.53;;
73474;SDS011;61711;52.266;10.542;2023-06-10T09:10:37;11.43;;;7.15;;
73474;SDS011;61711;52.266;10.542;2023-06-10T09:13:03;13.73;;;8.80;;
73474;SDS011;61711;52.266;10.542;2023-06-10T09:15:31;11.75;;;7.63;;
73474;SDS011;61711;52.266;10.542;2023-06-10T09:17:57;11.15;;;7.72;;
73474;SDS011;61711;52.266;10.542;2023-06-10T09:20:24;10.70;;;7.53;;
73474;SDS011;61711;52.266;10.542;2023-06-10T09:22:50;10.25;;;8.15;;
73474;SDS011;61711;52.266;10.542;2023-06-10T09:25:16;13.15;;;8.20;;
73474;SDS011;61711;52.266;10.542;2023-06-10T09:27:46;13.20;;;8.13;;
73474;SDS011;61711;52.266;10.542;2023-06-10T09:30:25;13.75;;;8.30;;
73474;SDS011;61711;52.266;10.542;2023-06-10T09:32:55;12.27;;;8.45;;
73474;SDS011;61711;52.266;10.542;2023-06-10T09:35:24;17.67;;;8.90;;
73474;SDS011;61711;52.266;10.542;2023-06-10T09:37:57;11.80;;;8.60;;
73474;SDS011;61711;52.266;10.542;2023-06-10T09:42:53;16.35;;;9.20;;
73474;SDS011;61711;52.266;10.542;2023-06-10T09:45:20;15.27;;;8.70;;
73474;SDS011;61711;52.266;10.542;2023-06-10T09:47:54;13.52;;;8.57;;
73474;SDS011;61711;52.266;10.542;2023-06-10T09:50:20;11.40;;;8.80;;
73474;SDS011;61711;52.266;10.542;2023-06-10T09:52:47;14.50;;;9.25;;
73474;SDS011;61711;52.266;10.542;2023-06-10T09:55:13;11.43;;;8.70;;
73474;SDS011;61711;52.266;10.542;2023-06-10T09:57:39;14.02;;;9.45;;
73474;SDS011;61711;52.266;10.542;2023-06-10T10:00:07;15.77;;;9.63;;
73474;SDS011;61711;52.266;10.542;2023-06-10T10:02:37;13.35;;;9.50;;
73474;SDS011;61711;52.266;10.542;2023-06-10T10:05:09;14.43;;;9.60;;
73474;SDS011;61711;52.266;10.542;2023-06-10T10:07:35;11.95;;;9.73;;
73474;SDS011;61711;52.266;10.542;2023-06-10T10:10:01;17.35;;;10.00;;
73474;SDS011;61711;52.266;10.542;2023-06-10T10:12:27;15.13;;;9.98;;
73474;SDS011;61711;52.266;10.542;2023-06-10T10:14:53;12.20;;;9.10;;
73474;SDS011;61711;52.266;10.542;2023-06-10T10:17:20;13.23;;;9.43;;
73474;SDS011;61711;52.266;10.542;2023-06-10T10:19:50;13.23;;;10.10;;
73474;SDS011;61711;52.266;10.542;2023-06-10T10:22:20;11.75;;;9.70;;
73474;SDS011;61711;52.266;10.542;2023-06-10T10:24:51;12.53;;;9.77;;
73474;SDS011;61711;52.266;10.542;2023-06-10T10:27:18;13.48;;;9.88;;
73474;SDS011;61711;52.266;10.542;2023-06-10T10:29:47;14.32;;;10.20;;
73474;SDS011;61711;52.266;10.542;2023-06-10T10:32:13;14.23;;;9.40;;
73474;SDS011;61711;52.266;10.542;2023-06-10T10:34:43;11.55;;;9.18;;
73474;SDS011;61711;52.266;10.542;2023-06-10T10:37:13;13.55;;;9.32;;
73474;SDS011;61711;52.266;10.542;2023-06-10T10:39:39;12.35;;;9.30;;
73474;SDS011;61711;52.266;10.542;2023-06-10T10:42:05;14.52;;;9.60;;
73474;SDS011;61711;52.266;10.542;2023-06-10T10:44:35;11.43;;;9.60;;
73474;SDS011;61711;52.266;10.542;2023-06-10T10:47:02;13.52;;;9.45;;
73474;SDS011;61711;52.266;10.542;2023-06-10T10:49:32;12.93;;;9.40;;
73474;SDS011;61711;52.266;10.542;2023-06-10T10:51:59;12.85;;;9.75;;
73474;SDS011;61711;52.266;10.542;2023-06-10T10:54:30;11.80;;;9.18;;
73474;SDS011;61711;52.266;10.542;2023-06-10T10:57:09;11.23;;;9.00;;
73474;SDS011;61711;52.266;10.542;2023-06-10T11:02:15;11.80;;;9.77;;
73474;SDS011;61711;52.266;10.542;2023-06-10T11:04:48;11.75;;;9.07;;
73474;SDS011;61711;52.266;10.542;2023-06-10T11:07:14;12.23;;;9.05;;
73474;SDS011;61711;52.266;10.542;2023-06-10T11:09:59;10.95;;;9.20;;
73474;SDS011;61711;52.266;10.542;2023-06-10T11:12:38;11.00;;;9.25;;
73474;SDS011;61711;52.266;10.542;2023-06-10T11:15:04;12.07;;;10.00;;
73474;SDS011;61711;52.266;10.542;2023-06-10T11:17:30;11.15;;;9.15;;
73474;SDS011;61711;52.266;10.542;2023-06-10T11:19:58;10.63;;;9.52;;
73474;SDS011;61711;52.266;10.542;2023-06-10T11:22:24;10.00;;;8.85;;
73474;SDS011;61711;52.266;10.542;2023-06-10T11:24:50;12.00;;;9.75;;
73474;SDS011;61711;52.266;10.542;2023-06-10T11:30:27;11.85;;;9.80;;
73474;SDS011;61711;52.266;10.542;2023-06-10T11:32:29;11.90;;;9.10;;
73474;SDS011;61711;52.266;10.542;2023-06-10T11:34:56;13.27;;;9.20;;
73474;SDS011;61711;52.266;10.542;2023-06-10T11:37:23;14.85;;;9.70;;
73474;SDS011;61711;52.266;10.542;2023-06-10T11:39:54;12.02;;;9.20;;
73474;SDS011;61711;52.266;10.542;2023-06-10T11:42:21;14.68;;;9.10;;
73474;SDS011;61711;52.266;10.542;2023-06-10T11:44:48;14.75;;;9.32;;
73474;SDS011;61711;52.266;10.542;2023-06-10T11:47:14;11.13;;;9.65;;
73474;SDS011;61711;52.266;10.542;2023-06-10T11:49:41;11.60;;;9.98;;
73474;SDS011;61711;52.266;10.542;2023-06-10T11:52:06;11.07;;;9.75;;
73474;SDS011;61711;52.266;10.542;2023-06-10T11:54:32;10.65;;;9.48;;
73474;SDS011;61711;52.266;10.542;2023-06-10T11:56:59;12.45;;;9.90;;
73474;SDS011;61711;52.266;10.542;2023-06-10T11:59:28;12.23;;;9.80;;
73474;SDS011;61711;52.266;10.542;2023-06-10T12:01:55;11.10;;;9.93;;
73474;SDS011;61711;52.266;10.542;2023-06-10T12:04:21;11.32;;;9.20;;
73474;SDS011;61711;52.266;10.542;2023-06-10T12:06:50;13.10;;;9.93;;
73474;SDS011;61711;52.266;10.542;2023-06-10T12:09:20;11.02;;;9.82;;
73474;SDS011;61711;52.266;10.542;2023-06-10T12:12:05;11.77;;;10.20;;
73474;SDS011;61711;52.266;10.542;2023-06-10T12:19:57;16.67;;;9.80;;
73474;SDS011;61711;52.266;10.542;2023-06-10T12:22:23;12.82;;;10.07;;
73474;SDS011;61711;52.266;10.542;2023-06-10T12:24:59;15.35;;;10.45;;
73474;SDS011;61711;52.266;10.542;2023-06-10T12:27:26;11.50;;;10.30;;
73474;SDS011;61711;52.266;10.542;2023-06-10T12:29:54;12.65;;;9.77;;
73474;SDS011;61711;52.266;10.542;2023-06-10T12:32:21;12.65;;;9.77;;
73474;SDS011;61711;52.266;10.542;2023-06-10T12:35:01;12.48;;;10.15;;
73474;SDS011;61711;52.266;10.542;2023-06-10T12:37:28;11.73;;;9.80;;
73474;SDS011;61711;52.266;10.542;2023-06-10T12:39:54;11.70;;;9.05;;
73474;SDS011;61711;52.266;10.542;2023-06-10T12:42:22;10.60;;;9.43;;
73474;SDS011;61711;52.266;10.542;2023-06-10T12:44:52;9.90;;;9.00;;
73474;SDS011;61711;52.266;10.542;2023-06-10T12:47:18;11.40;;;9.18;;
73474;SDS011;61711;52.266;10.542;2023-06-10T12:49:44;10.65;;;9.07;;
73474;SDS011;61711;52.266;10.542;2023-06-10T12:52:10;10.80;;;9.13;;
73474;SDS011;61711;52.266;10.542;2023-06-10T12:54:36;11.82;;;8.52;;
73474;SDS011;61711;52.266;10.542;2023-06-10T12:57:03;12.13;;;8.48;;
73474;SDS011;61711;52.266;10.542;2023-06-10T12:59:29;10.93;;;8.40;;
73474;SDS011;61711;52.266;10.542;2023-06-10T13:01:57;10.27;;;8.30;;
73474;SDS011;61711;52.266;10.542;2023-06-10T13:04:23;8.95;;;7.88;;
73474;SDS011;61711;52.266;10.542;2023-06-10T13:06:49;9.07;;;8.18;;
73474;SDS011;61711;52.266;10.542;2023-06-10T13:09:15;9.85;;;8.57;;
73474;SDS011;61711;52.266;10.542;2023-06-10T13:11:41;10.57;;;8.50;;
73474;SDS011;61711;52.266;10.542;2023-06-10T13:14:08;9.77;;;8.82;;
73474;SDS011;61711;52.266;10.542;2023-06-10T13:16:34;10.65;;;8.40;;
73474;SDS011;61711;52.266;10.542;2023-06-10T13:19:01;9.40;;;8.52;;
73474;SDS011;61711;52.266;10.542;2023-06-10T13:21:30;11.60;;;9.30;;
73474;SDS011;61711;52.266;10.542;2023-06-10T13:23:56;9.93;;;8.93;;
73474;SDS011;61711;52.266;10.542;2023-06-10T13:26:22;11.45;;;9.27;;
73474;SDS011;61711;52.266;10.542;2023-06-10T13:28:48;11.75;;;9.40;;
73474;SDS011;61711;52.266;10.542;2023-06-10T13:31:14;10.32;;;9.18;;
73474;SDS011;61711;52.266;10.542;2023-06-10T13:33:40;9.43;;;8.43;;
73474;SDS011;61711;52.266;10.542;2023-06-10T13:36:08;10.32;;;8.60;;
73474;SDS011;61711;52.266;10.542;2023-06-10T13:38:34;11.13;;;8.60;;
73474;SDS011;61711;52.266;10.542;2023-06-10T13:41:00;11.43;;;10.23;;
73474;SDS011;61711;52.266;10.542;2023-06-10T13:43:26;12.35;;;9.43;;
73474;SDS011;61711;52.266;10.542;2023-06-10T13:45:53;9.90;;;9.00;;
73474;SDS011;61711;52.266;10.542;2023-06-10T13:48:20;10.43;;;9.43;;
73474;SDS011;61711;52.266;10.542;2023-06-10T13:50:46;10.85;;;9.00;;
73474;SDS011;61711;52.266;10.542;2023-06-10T13:53:12;10.88;;;8.95;;
73474;SDS011;61711;52.266;10.542;2023-06-10T13:55:38;13.70;;;9.38;;
73474;SDS011;61711;52.266;10.542;2023-06-10T13:58:04;11.48;;;10.27;;
73474;SDS011;61711;52.266;10.542;2023-06-10T14:00:30;11.43;;;10.05;;
73474;SDS011;61711;52.266;10.542;2023-06-10T14:02:56;15.98;;;10.90;;
73474;SDS011;61711;52.266;10.542;2023-06-10T14:05:22;10.43;;;9.43;;
73474;SDS011;61711;52.266;10.542;2023-06-10T14:07:49;12.43;;;9.55;;
73474;SDS011;61711;52.266;10.542;2023-06-10T14:10:15;13.93;;;9.70;;
73474;SDS011;61711;52.266;10.542;2023-06-10T14:12:41;11.88;;;10.27;;
73474;SDS011;61711;52.266;10.542;2023-06-10T14:15:07;10.77;;;9.60;;
73474;SDS011;61711;52.266;10.542;2023-06-10T14:17:33;11.23;;;10.10;;
73474;SDS011;61711;52.266;10.542;2023-06-10T14:19:59;11.75;;;10.55;;
73474;SDS011;61711;52.266;10.542;2023-06-10T14:22:25;10.90;;;9.30;;
73474;SDS011;61711;52.266;10.542;2023-06-10T14:24:51;11.35;;;9.98;;
73474;SDS011;61711;52.266;10.542;2023-06-10T14:27:17;10.80;;;9.70;;
73474;SDS011;61711;52.266;10.542;2023-06-10T14:29:43;13.95;;;9.70;;
73474;SDS011;61711;52.266;10.542;2023-06-10T14:32:09;11.45;;;10.35;;
73474;SDS011;61711;52.266;10.542;2023-06-10T14:34:35;11.70;;;9.80;;
73474;SDS011;61711;52.266;10.542;2023-06-10T14:37:01;12.75;;;11.38;;
73474;SDS011;61711;52.266;10.542;2023-06-10T14:39:32;13.95;;;11.27;;
73474;SDS011;61711;52.266;10.542;2023-06-10T14:41:58;11.65;;;9.82;;